Bogard Atmospheric Data: 03/22/2019 Summary  Detailed Graphs  Station List

  Temperature     Wind Precipitation Visibility
Timestamp Air Wet
Bulb
Dew-
point
24-hr
Max
24-hr
Min
Relative
Humidity
Atmospheric
Pressure
Avg
Speed
Avg
Dir
Spot
Speed
Spot
Dir
Max
Speed
Max
Dir
  Rate Situation Start End 1 hr 3 hr 6 hr 12 hr 24 hr   Situation
Date Time °F °F °F °F °F % in Hg mph ° mph ° mph ° Y/N in/hr text Date Time Date Time in in in in in mi text
03/22/2019 12:02 AM 26.96 26.60 26.06 46.76 22.28 96.0 Not Reported 0.00 N 0.00 W 1.79 W No 0.000 No Precipitation 03/20/2019 08:33 AM 03/20/2019 08:38 AM 0.000 0.000 0.000 0.000 0.000 Not Reported Not Reported
03/22/2019 12:17 AM 25.52 25.16 24.44 46.76 22.28 95.0 Not Reported 1.57 NE 1.79 E 1.34 E No 0.000 No Precipitation 03/20/2019 08:33 AM 03/20/2019 08:38 AM 0.000 0.000 0.000 0.000 0.000 Not Reported Not Reported
03/22/2019 12:32 AM 25.52 25.34 24.62 46.76 22.28 96.0 Not Reported 0.89 NW 1.12 NW 1.79 E No 0.000 No Precipitation 03/20/2019 08:33 AM 03/20/2019 08:38 AM 0.000 0.000 0.000 0.000 0.000 Not Reported Not Reported
03/22/2019 12:47 AM 25.88 25.70 25.34 46.76 22.28 97.0 Not Reported 0.45 W 1.12 SW 1.12 N No 0.000 No Precipitation 03/20/2019 08:33 AM 03/20/2019 08:38 AM 0.000 0.000 0.000 0.000 0.000 Not Reported Not Reported
03/22/2019 01:02 AM 26.06 25.70 25.34 46.76 22.28 97.0 Not Reported 0.45 W 0.89 W 1.79 W No 0.000 No Precipitation 03/20/2019 08:33 AM 03/20/2019 08:38 AM 0.000 0.000 0.000 0.000 0.000 Not Reported Not Reported
03/22/2019 01:17 AM 24.62 24.26 23.54 46.76 22.28 96.0 Not Reported 0.45 E 0.00 E 2.01 NE No 0.000 No Precipitation 03/20/2019 08:33 AM 03/20/2019 08:38 AM 0.000 0.000 0.000 0.000 0.000 Not Reported Not Reported
03/22/2019 01:32 AM 24.62 24.44 23.90 46.76 22.28 97.0 Not Reported 0.89 SW 0.45 SW 1.12 SW No 0.000 No Precipitation 03/20/2019 08:33 AM 03/20/2019 08:38 AM 0.000 0.000 0.000 0.000 0.000 Not Reported Not Reported
03/22/2019 01:47 AM 25.16 24.98 24.44 46.76 22.28 97.0 Not Reported 0.45 W 0.00 W 1.12 SW No 0.000 No Precipitation 03/20/2019 08:33 AM 03/20/2019 08:38 AM 0.000 0.000 0.000 0.000 0.000 Not Reported Not Reported
03/22/2019 02:02 AM 24.44 24.26 23.72 46.76 22.28 97.0 Not Reported 0.00 W 0.45 W 0.22 W No 0.000 No Precipitation 03/20/2019 08:33 AM 03/20/2019 08:38 AM 0.000 0.000 0.000 0.000 0.000 Not Reported Not Reported
03/22/2019 02:17 AM 24.08 23.90 23.36 46.76 22.28 97.0 Not Reported 0.22 SW 0.00 SW 2.68 SW No 0.000 No Precipitation 03/20/2019 08:33 AM 03/20/2019 08:38 AM 0.000 0.000 0.000 0.000 0.000 Not Reported Not Reported
03/22/2019 02:32 AM 23.00 22.82 22.10 46.76 22.28 95.0 Not Reported 0.00 W 0.00 N 0.67 NW No 0.000 No Precipitation 03/20/2019 08:33 AM 03/20/2019 08:38 AM 0.000 0.000 0.000 0.000 0.000 Not Reported Not Reported
03/22/2019 02:47 AM 21.74 21.74 21.02 46.76 21.56 96.0 Not Reported 0.00 N 0.00 NE 1.34 NE No 0.000 No Precipitation 03/20/2019 08:33 AM 03/20/2019 08:38 AM 0.000 0.000 0.000 0.000 0.000 Not Reported Not Reported
03/22/2019 03:02 AM 20.84 20.12 19.76 46.76 20.84 95.0 Not Reported 0.00 N 0.00 NE 0.00 NE No 0.000 No Precipitation 03/20/2019 08:33 AM 03/20/2019 08:38 AM 0.000 0.000 0.000 0.000 0.000 Not Reported Not Reported
03/22/2019 03:17 AM 18.50 18.14 17.78 46.76 18.50 96.0 Not Reported 0.00 NE 0.00 NE 2.01 NE No 0.000 No Precipitation 03/20/2019 08:33 AM 03/20/2019 08:38 AM 0.000 0.000 0.000 0.000 0.000 Not Reported Not Reported
03/22/2019 03:32 AM 19.22 19.04 18.68 46.76 18.50 97.0 Not Reported 0.00 N 0.00 NE 0.45 NE No 0.000 No Precipitation 03/20/2019 08:33 AM 03/20/2019 08:38 AM 0.000 0.000 0.000 0.000 0.000 Not Reported Not Reported
03/22/2019 03:47 AM 18.86 18.50 17.96 46.76 18.50 95.0 Not Reported 0.00 N 0.00 NE 1.12 NE No 0.000 No Precipitation 03/20/2019 08:33 AM 03/20/2019 08:38 AM 0.000 0.000 0.000 0.000 0.000 Not Reported Not Reported
03/22/2019 04:02 AM 18.50 18.14 17.24 46.76 18.50 94.0 Not Reported 0.22 NE 0.45 NE 0.67 NE No 0.000 No Precipitation 03/20/2019 08:33 AM 03/20/2019 08:38 AM 0.000 0.000 0.000 0.000 0.000 Not Reported Not Reported
03/22/2019 04:17 AM 18.14 17.78 16.70 46.76 18.14 94.0 Not Reported 0.89 E 0.67 E 0.67 NE No 0.000 No Precipitation 03/20/2019 08:33 AM 03/20/2019 08:38 AM 0.000 0.000 0.000 0.000 0.000 Not Reported Not Reported
03/22/2019 04:32 AM 17.78 17.42 17.24 46.76 17.60 97.0 Not Reported 0.00 N 0.00 NE 1.34 NE No 0.000 No Precipitation 03/20/2019 08:33 AM 03/20/2019 08:38 AM 0.000 0.000 0.000 0.000 0.000 Not Reported Not Reported
03/22/2019 04:47 AM 17.78 17.60 16.88 46.76 17.60 96.0 Not Reported 0.45 S 0.00 S 1.12 NE No 0.000 No Precipitation 03/20/2019 08:33 AM 03/20/2019 08:38 AM 0.000 0.000 0.000 0.000 0.000 Not Reported Not Reported
03/22/2019 05:02 AM 17.24 16.88 15.98 46.76 17.06 94.0 Not Reported 0.00 N 0.00 S 1.12 S No 0.000 No Precipitation 03/20/2019 08:33 AM 03/20/2019 08:38 AM 0.000 0.000 0.000 0.000 0.000 Not Reported Not Reported
03/22/2019 05:17 AM 17.24 16.88 15.98 46.76 17.06 94.0 Not Reported 0.00 N 0.00 NE 1.34 NE No 0.000 No Precipitation 03/20/2019 08:33 AM 03/20/2019 08:38 AM 0.000 0.000 0.000 0.000 0.000 Not Reported Not Reported
03/22/2019 05:32 AM 16.70 16.34 15.08 46.76 16.70 93.0 Not Reported 0.00 N 0.45 NE 0.00 NE No 0.000 No Precipitation 03/20/2019 08:33 AM 03/20/2019 08:38 AM 0.000 0.000 0.000 0.000 0.000 Not Reported Not Reported
03/22/2019 05:47 AM 16.88 16.34 15.26 46.76 16.52 93.0 Not Reported 0.00 NW 1.57 W 2.91 SW No 0.000 No Precipitation 03/20/2019 08:33 AM 03/20/2019 08:38 AM 0.000 0.000 0.000 0.000 0.000 Not Reported Not Reported
03/22/2019 06:02 AM 17.60 17.24 16.34 46.76 16.52 94.0 Not Reported 3.36 SW 2.01 SW 3.58 SW No 0.000 No Precipitation 03/20/2019 08:33 AM 03/20/2019 08:38 AM 0.000 0.000 0.000 0.000 0.000 Not Reported Not Reported
03/22/2019 06:17 AM 17.42 17.06 15.98 46.76 16.52 93.0 Not Reported 2.01 SW 1.57 SW 2.24 SW No 0.000 No Precipitation 03/20/2019 08:33 AM 03/20/2019 08:38 AM 0.000 0.000 0.000 0.000 0.000 Not Reported Not Reported
03/22/2019 06:32 AM 17.60 17.06 15.98 46.76 16.52 93.0 Not Reported 0.22 W 1.34 SW 1.79 W No 0.000 No Precipitation 03/20/2019 08:33 AM 03/20/2019 08:38 AM 0.000 0.000 0.000 0.000 0.000 Not Reported Not Reported
03/22/2019 06:47 AM 17.06 16.70 15.62 46.76 16.52 93.0 Not Reported 1.12 SW 1.12 SW 1.57 SW No 0.000 No Precipitation 03/20/2019 08:33 AM 03/20/2019 08:38 AM 0.000 0.000 0.000 0.000 0.000 Not Reported Not Reported
03/22/2019 07:02 AM 14.90 14.54 13.46 46.76 14.72 94.0 Not Reported 0.45 NE 0.00 NE 2.68 NE No 0.000 No Precipitation 03/20/2019 08:33 AM 03/20/2019 08:38 AM 0.000 0.000 0.000 0.000 0.000 Not Reported Not Reported
03/22/2019 07:17 AM 15.08 14.90 14.18 46.76 14.72 95.0 Not Reported 0.00 NE 0.00 NE 1.57 E No 0.000 No Precipitation 03/20/2019 08:33 AM 03/20/2019 08:38 AM 0.000 0.000 0.000 0.000 0.000 Not Reported Not Reported
03/22/2019 07:32 AM 15.08 14.72 13.82 46.76 14.72 94.0 Not Reported 0.00 N 0.00 NE 0.45 NE No 0.000 No Precipitation 03/20/2019 08:33 AM 03/20/2019 08:38 AM 0.000 0.000 0.000 0.000 0.000 Not Reported Not Reported
03/22/2019 07:47 AM 15.08 14.90 13.64 46.76 14.72 93.0 Not Reported 1.34 SW 1.34 SW 1.12 N No 0.000 No Precipitation 03/20/2019 08:33 AM 03/20/2019 08:38 AM 0.000 0.000 0.000 0.000 0.000 Not Reported Not Reported
03/22/2019 08:02 AM 15.62 15.26 14.00 46.76 14.72 93.0 Not Reported 0.00 N 0.67 S 1.79 W No 0.000 No Precipitation 03/20/2019 08:33 AM 03/20/2019 08:38 AM 0.000 0.000 0.000 0.000 0.000 Not Reported Not Reported
03/22/2019 08:17 AM 16.34 15.62 14.54 46.76 14.72 92.0 Not Reported 0.00 SW 0.00 SW 1.12 S No 0.000 No Precipitation 03/20/2019 08:33 AM 03/20/2019 08:38 AM 0.000 0.000 0.000 0.000 0.000 Not Reported Not Reported
03/22/2019 08:32 AM 17.06 16.70 14.90 46.76 14.72 90.0 Not Reported 0.22 NW 0.00 SW 1.57 E No 0.000 No Precipitation 03/20/2019 08:33 AM 03/20/2019 08:38 AM 0.000 0.000 0.000 0.000 0.000 Not Reported Not Reported
03/22/2019 08:47 AM 18.68 18.32 17.06 46.76 14.72 93.0 Not Reported 0.45 W 0.67 W 2.01 SW No 0.000 No Precipitation 03/20/2019 08:33 AM 03/20/2019 08:38 AM 0.000 0.000 0.000 0.000 0.000 Not Reported Not Reported
03/22/2019 09:02 AM 19.58 19.04 17.96 46.76 14.72 93.0 Not Reported 0.00 N 1.34 SW 1.57 SW No 0.000 No Precipitation 03/20/2019 08:33 AM 03/20/2019 08:38 AM 0.000 0.000 0.000 0.000 0.000 Not Reported Not Reported
03/22/2019 09:17 AM 21.02 20.48 19.22 46.76 14.72 92.0 Not Reported 0.00 N 0.45 N 1.34 SW No 0.000 No Precipitation 03/20/2019 08:33 AM 03/20/2019 08:38 AM 0.000 0.000 0.000 0.000 0.000 Not Reported Not Reported
03/22/2019 09:32 AM 22.64 21.92 20.48 46.76 14.72 90.0 Not Reported 1.12 SW 2.46 SW 1.34 SW No 0.000 No Precipitation 03/20/2019 08:33 AM 03/20/2019 08:38 AM 0.000 0.000 0.000 0.000 0.000 Not Reported Not Reported
03/22/2019 09:47 AM 26.78 26.24 25.16 46.76 14.72 93.0 Not Reported 0.00 N 0.00 SE 2.68 SW No 0.000 No Precipitation 03/20/2019 08:33 AM 03/20/2019 08:38 AM 0.000 0.000 0.000 0.000 0.000 Not Reported Not Reported
03/22/2019 10:02 AM 27.14 26.06 24.08 46.76 14.72 88.0 Not Reported 2.24 E 2.24 E 3.36 E No 0.000 No Precipitation 03/20/2019 08:33 AM 03/20/2019 08:38 AM 0.000 0.000 0.000 0.000 0.000 Not Reported Not Reported
03/22/2019 10:17 AM 29.30 28.58 26.96 46.76 14.72 90.0 Not Reported 4.25 SE 3.58 SE 2.68 E No 0.000 No Precipitation 03/20/2019 08:33 AM 03/20/2019 08:38 AM 0.000 0.000 0.000 0.000 0.000 Not Reported Not Reported
03/22/2019 10:32 AM 31.82 30.38 27.86 46.76 14.72 84.0 Not Reported 2.24 SE 3.36 S 4.47 E No 0.000 No Precipitation 03/20/2019 08:33 AM 03/20/2019 08:38 AM 0.000 0.000 0.000 0.000 0.000 Not Reported Not Reported
03/22/2019 10:47 AM 33.08 30.74 25.70 46.76 14.72 74.0 Not Reported 8.05 S 9.17 S 6.49 S No 0.000 No Precipitation 03/20/2019 08:33 AM 03/20/2019 08:38 AM 0.000 0.000 0.000 0.000 0.000 Not Reported Not Reported
03/22/2019 11:02 AM 33.98 31.10 25.70 46.76 14.72 70.0 Not Reported 4.47 S 5.37 SE 8.50 S No 0.000 No Precipitation 03/20/2019 08:33 AM 03/20/2019 08:38 AM 0.000 0.000 0.000 0.000 0.000 Not Reported Not Reported
03/22/2019 11:17 AM 34.52 31.28 25.34 46.76 14.72 68.0 Not Reported 8.50 S 8.50 SW 11.41 S No 0.000 No Precipitation 03/20/2019 08:33 AM 03/20/2019 08:38 AM 0.000 0.000 0.000 0.000 0.000 Not Reported Not Reported
03/22/2019 11:32 AM 34.88 31.64 25.88 46.76 14.72 68.0 Not Reported 6.71 S 5.59 S 12.97 S No 0.000 No Precipitation 03/20/2019 08:33 AM 03/20/2019 08:38 AM 0.000 0.000 0.000 0.000 0.000 Not Reported Not Reported
03/22/2019 11:47 AM 34.70 31.46 25.52 46.76 14.72 68.0 Not Reported 5.37 S 7.61 SE 8.05 S No 0.000 No Precipitation 03/20/2019 08:33 AM 03/20/2019 08:38 AM 0.000 0.000 0.000 0.000 0.000 Not Reported Not Reported
03/22/2019 12:02 PM 35.06 31.82 25.34 46.76 14.72 67.0 Not Reported 7.83 S 6.49 S 10.51 SE No 0.000 No Precipitation 03/20/2019 08:33 AM 03/20/2019 08:38 AM 0.000 0.000 0.000 0.000 0.000 Not Reported Not Reported
03/22/2019 12:17 PM 35.78 32.00 24.98 46.76 14.72 64.0 Not Reported 5.37 S 2.91 S 10.29 S No 0.000 No Precipitation 03/20/2019 08:33 AM 03/20/2019 08:38 AM 0.000 0.000 0.000 0.000 0.000 Not Reported Not Reported
03/22/2019 12:32 PM 35.96 32.00 24.98 46.76 14.72 63.0 Not Reported 4.70 SW 5.37 SE 9.17 SE No 0.000 No Precipitation 03/20/2019 08:33 AM 03/20/2019 08:38 AM 0.000 0.000 0.000 0.000 0.000 Not Reported Not Reported
03/22/2019 12:47 PM 35.96 32.00 25.52 46.76 14.72 65.0 Not Reported 2.91 S 3.13 SW 8.95 S No 0.000 No Precipitation 03/20/2019 08:33 AM 03/20/2019 08:38 AM 0.000 0.000 0.000 0.000 0.000 Not Reported Not Reported
03/22/2019 01:02 PM 36.32 32.36 26.24 46.76 14.72 65.0 Not Reported 4.25 SW 7.38 SW 6.93 SE No 0.000 No Precipitation 03/20/2019 08:33 AM 03/20/2019 08:38 AM 0.000 0.000 0.000 0.000 0.000 Not Reported Not Reported
03/22/2019 01:17 PM 36.68 32.72 26.60 46.76 14.72 66.0 Not Reported 6.49 SW 4.92 SW 9.40 S No 0.000 No Precipitation 03/20/2019 08:33 AM 03/20/2019 08:38 AM 0.000 0.000 0.000 0.000 0.000 Not Reported Not Reported
03/22/2019 01:32 PM 35.78 32.36 26.78 46.76 14.72 68.0 Not Reported 9.40 SW 6.04 SW 12.08 S No 0.000 No Precipitation 03/20/2019 08:33 AM 03/20/2019 08:38 AM 0.000 0.000 0.000 0.000 0.000 Not Reported Not Reported
03/22/2019 01:47 PM 36.32 32.72 26.96 46.76 14.72 67.0 Not Reported 6.04 S 2.46 S 10.51 S No 0.000 No Precipitation 03/20/2019 08:33 AM 03/20/2019 08:38 AM 0.000 0.000 0.000 0.000 0.000 Not Reported Not Reported
03/22/2019 02:02 PM 37.04 32.90 26.78 46.76 14.72 65.0 Not Reported 7.38 S 9.62 S 9.84 S No 0.000 No Precipitation 03/20/2019 08:33 AM 03/20/2019 08:38 AM 0.000 0.000 0.000 0.000 0.000 Not Reported Not Reported
03/22/2019 02:17 PM 37.04 33.08 26.96 46.76 14.72 66.0 Not Reported 7.38 S 7.16 S 12.08 S No 0.000 No Precipitation 03/20/2019 08:33 AM 03/20/2019 08:38 AM 0.000 0.000 0.000 0.000 0.000 Not Reported Not Reported
03/22/2019 02:32 PM 37.58 33.44 27.50 46.76 14.72 65.0 Not Reported 5.59 S 6.04 SE 8.95 S No 0.000 No Precipitation 03/20/2019 08:33 AM 03/20/2019 08:38 AM 0.000 0.000 0.000 0.000 0.000 Not Reported Not Reported
03/22/2019 02:47 PM 37.22 33.44 27.86 46.76 14.72 67.0 Not Reported 6.71 SE 7.61 S 6.49 S No 0.000 No Precipitation 03/20/2019 08:33 AM 03/20/2019 08:38 AM 0.000 0.000 0.000 0.000 0.000 Not Reported Not Reported
03/22/2019 03:02 PM 37.04 33.44 27.86 46.76 14.72 68.0 Not Reported 6.04 S 7.16 S 10.07 SE No 0.000 No Precipitation 03/20/2019 08:33 AM 03/20/2019 08:38 AM 0.000 0.000 0.000 0.000 0.000 Not Reported Not Reported
03/22/2019 03:17 PM 37.22 33.62 28.40 46.76 14.72 68.0 Not Reported 6.04 SE 6.26 S 7.61 S No 0.000 No Precipitation 03/20/2019 08:33 AM 03/20/2019 08:38 AM 0.000 0.000 0.000 0.000 0.000 Not Reported Not Reported
03/22/2019 03:32 PM 37.40 33.62 27.68 46.76 14.72 67.0 Not Reported 7.61 SE 10.74 S 8.50 S No 0.000 No Precipitation 03/20/2019 08:33 AM 03/20/2019 08:38 AM 0.000 0.000 0.000 0.000 0.000 Not Reported Not Reported
03/22/2019 03:47 PM 37.40 33.98 28.76 46.76 14.72 69.0 Not Reported 5.59 S 6.04 SE 11.41 S No 0.000 No Precipitation 03/20/2019 08:33 AM 03/20/2019 08:38 AM 0.000 0.000 0.000 0.000 0.000 Not Reported Not Reported
03/22/2019 04:02 PM 37.94 34.16 28.58 46.76 14.72 68.0 Not Reported 5.59 SW 3.36 S 9.40 S No 0.000 No Precipitation 03/20/2019 08:33 AM 03/20/2019 08:38 AM 0.000 0.000 0.000 0.000 0.000 Not Reported Not Reported
03/22/2019 04:17 PM 37.58 34.16 29.30 46.76 14.72 71.0 Not Reported 3.58 SE 2.46 SE 7.83 S No 0.000 No Precipitation 03/20/2019 08:33 AM 03/20/2019 08:38 AM 0.000 0.000 0.000 0.000 0.000 Not Reported Not Reported
03/22/2019 04:32 PM 37.40 34.34 29.48 46.76 14.72 72.0 Not Reported 3.80 SE 6.49 S 9.62 SE No 0.000 No Precipitation 03/20/2019 08:33 AM 03/20/2019 08:38 AM 0.000 0.000 0.000 0.000 0.000 Not Reported Not Reported
03/22/2019 04:47 PM 38.12 34.70 29.48 46.76 14.72 70.0 Not Reported 4.92 S 5.59 S 8.95 SW No 0.000 No Precipitation 03/20/2019 08:33 AM 03/20/2019 08:38 AM 0.000 0.000 0.000 0.000 0.000 Not Reported Not Reported
03/22/2019 05:01 PM 37.04 33.80 29.30 46.76 14.72 72.0 Not Reported 6.49 SE 8.72 SW 12.08 S No 0.000 No Precipitation 03/20/2019 08:33 AM 03/20/2019 08:38 AM 0.000 0.000 0.000 0.000 0.000 Not Reported Not Reported
03/22/2019 05:17 PM 37.04 34.16 29.84 46.76 14.72 73.0 Not Reported 4.47 SE 4.03 SE 14.76 S No 0.000 No Precipitation 03/20/2019 08:33 AM 03/20/2019 08:38 AM 0.000 0.000 0.000 0.000 0.000 Not Reported Not Reported
03/22/2019 05:32 PM 36.86 33.98 29.66 46.76 14.72 74.0 Not Reported 4.70 SE 6.93 SW 11.41 S No 0.000 No Precipitation 03/20/2019 08:33 AM 03/20/2019 08:38 AM 0.000 0.000 0.000 0.000 0.000 Not Reported Not Reported
03/22/2019 05:47 PM 36.68 33.80 30.02 43.52 14.72 75.0 Not Reported 7.83 S 3.80 S 7.61 SE No 0.000 No Precipitation 03/20/2019 08:33 AM 03/20/2019 08:38 AM 0.000 0.000 0.000 0.000 0.000 Not Reported Not Reported
03/22/2019 06:02 PM 36.86 34.16 30.20 43.52 14.72 75.0 Not Reported 4.25 S 7.16 E 11.63 S No 0.000 No Precipitation 03/20/2019 08:33 AM 03/20/2019 08:38 AM 0.000 0.000 0.000 0.000 0.000 Not Reported Not Reported
03/22/2019 06:17 PM 36.86 33.98 29.84 43.52 14.72 74.0 Not Reported 6.04 S 8.50 SW 8.28 S No 0.000 No Precipitation 03/20/2019 08:33 AM 03/20/2019 08:38 AM 0.000 0.000 0.000 0.000 0.000 Not Reported Not Reported
03/22/2019 06:32 PM 36.68 33.98 29.84 42.08 14.72 75.0 Not Reported 4.92 SE 2.01 SE 7.16 SE No 0.000 No Precipitation 03/20/2019 08:33 AM 03/20/2019 08:38 AM 0.000 0.000 0.000 0.000 0.000 Not Reported Not Reported
03/22/2019 06:47 PM 36.14 33.62 29.84 41.00 14.72 77.0 Not Reported 5.14 S 2.46 SW 6.49 SE No 0.000 No Precipitation 03/20/2019 08:33 AM 03/20/2019 08:38 AM 0.000 0.000 0.000 0.000 0.000 Not Reported Not Reported
03/22/2019 07:02 PM 35.96 33.44 30.02 39.56 14.72 78.0 Not Reported 3.13 S 0.89 SE 10.74 S No 0.000 No Precipitation 03/20/2019 08:33 AM 03/20/2019 08:38 AM 0.000 0.000 0.000 0.000 0.000 Not Reported Not Reported
03/22/2019 07:17 PM 35.60 33.26 29.66 38.48 14.72 77.0 Not Reported 2.68 S 1.57 SE 4.92 SW No 0.000 No Precipitation 03/20/2019 08:33 AM 03/20/2019 08:38 AM 0.000 0.000 0.000 0.000 0.000 Not Reported Not Reported
03/22/2019 07:32 PM 35.78 33.26 29.66 38.48 14.72 77.0 Not Reported 1.79 SW 2.91 SE 4.03 S No 0.000 No Precipitation 03/20/2019 08:33 AM 03/20/2019 08:38 AM 0.000 0.000 0.000 0.000 0.000 Not Reported Not Reported
03/22/2019 07:47 PM 35.06 32.90 30.02 38.48 14.72 81.0 Not Reported 2.91 S 3.36 SE 4.03 S No 0.000 No Precipitation 03/20/2019 08:33 AM 03/20/2019 08:38 AM 0.000 0.000 0.000 0.000 0.000 Not Reported Not Reported
03/22/2019 08:02 PM 34.34 32.72 30.38 38.48 14.72 84.0 Not Reported 2.91 S 3.13 SE 4.25 S No 0.000 No Precipitation 03/20/2019 08:33 AM 03/20/2019 08:38 AM 0.000 0.000 0.000 0.000 0.000 Not Reported Not Reported
03/22/2019 08:17 PM 33.98 32.54 30.92 38.48 14.72 87.0 Not Reported 2.01 SE 2.01 SE 4.70 SE No 0.000 No Precipitation 03/20/2019 08:33 AM 03/20/2019 08:38 AM 0.000 0.000 0.000 0.000 0.000 Not Reported Not Reported
03/22/2019 08:32 PM 33.08 32.36 31.46 38.48 14.72 92.0 Not Reported 2.68 SE 2.01 SE 3.36 SE No 0.000 No Precipitation 03/20/2019 08:33 AM 03/20/2019 08:38 AM 0.000 0.000 0.000 0.000 0.000 Not Reported Not Reported
03/22/2019 08:47 PM 33.08 32.36 31.64 38.48 14.72 93.0 Not Reported 2.46 E 2.91 E 3.13 SE No 0.000 No Precipitation 03/20/2019 08:33 AM 03/20/2019 08:38 AM 0.000 0.000 0.000 0.000 0.000 Not Reported Not Reported
03/22/2019 09:02 PM 32.54 32.00 31.64 38.48 14.72 95.0 Not Reported 6.04 E 6.26 E 9.17 E No 0.000 No Precipitation 03/20/2019 08:33 AM 03/20/2019 08:38 AM 0.000 0.000 0.000 0.000 0.000 Not Reported Not Reported
03/22/2019 09:17 PM 32.54 32.18 31.64 38.48 14.72 95.0 Not Reported 2.46 SE 4.25 E 8.72 E No 0.000 No Precipitation 03/20/2019 08:33 AM 03/20/2019 08:38 AM 0.000 0.000 0.000 0.000 0.000 Not Reported Not Reported
03/22/2019 09:32 PM 32.54 32.00 31.28 38.48 14.72 94.0 Not Reported 2.46 SE 4.70 SE 5.14 SE No 0.000 No Precipitation 03/20/2019 08:33 AM 03/20/2019 08:38 AM 0.000 0.000 0.000 0.000 0.000 Not Reported Not Reported
03/22/2019 09:47 PM 33.08 32.00 31.10 38.48 14.72 92.0 Not Reported 5.14 SE 4.70 SE 6.26 E No 0.000 No Precipitation 03/20/2019 08:33 AM 03/20/2019 08:38 AM 0.000 0.000 0.000 0.000 0.000 Not Reported Not Reported
03/22/2019 10:02 PM 32.90 32.18 31.28 38.48 14.72 92.0 Not Reported 4.92 SE 7.61 E 6.93 E No 0.000 No Precipitation 03/20/2019 08:33 AM 03/20/2019 08:38 AM 0.000 0.000 0.000 0.000 0.000 Not Reported Not Reported
03/22/2019 10:17 PM 32.54 32.00 31.28 38.48 14.72 94.0 Not Reported 5.82 E 6.04 E 7.83 E No 0.000 No Precipitation 03/20/2019 08:33 AM 03/20/2019 08:38 AM 0.000 0.000 0.000 0.000 0.000 Not Reported Not Reported
03/22/2019 10:32 PM 32.00 31.82 31.28 38.48 14.72 96.0 Not Reported 6.49 E 6.93 E 7.61 E No 0.000 No Precipitation 03/20/2019 08:33 AM 03/20/2019 08:38 AM 0.000 0.000 0.000 0.000 0.000 Not Reported Not Reported
03/22/2019 10:47 PM 32.54 32.00 31.46 38.48 14.72 94.0 Not Reported 7.83 E 8.50 E 8.50 E No 0.000 No Precipitation 03/20/2019 08:33 AM 03/20/2019 08:38 AM 0.000 0.000 0.000 0.000 0.000 Not Reported Not Reported
03/22/2019 11:02 PM 32.54 32.00 31.46 38.48 14.72 95.0 Not Reported 7.38 E 8.05 E 9.84 E No 0.000 No Precipitation 03/20/2019 08:33 AM 03/20/2019 08:38 AM 0.000 0.000 0.000 0.000 0.000 Not Reported Not Reported
03/22/2019 11:17 PM 32.72 32.18 31.46 38.48 14.72 94.0 Not Reported 6.71 E 7.61 E 9.40 E No 0.000 No Precipitation 03/20/2019 08:33 AM 03/20/2019 08:38 AM 0.000 0.000 0.000 0.000 0.000 Not Reported Not Reported
03/22/2019 11:32 PM 32.90 32.18 31.64 38.48 14.72 94.0 Not Reported 7.38 E 5.82 E 8.95 E No 0.000 No Precipitation 03/20/2019 08:33 AM 03/20/2019 08:38 AM 0.000 0.000 0.000 0.000 0.000 Not Reported Not Reported
03/22/2019 11:47 PM 32.72 32.18 31.64 38.48 14.72 95.0 Not Reported 6.93 E 7.38 E 8.28 E No 0.000 No Precipitation 03/20/2019 08:33 AM 03/20/2019 08:38 AM 0.000 0.000 0.000 0.000 0.000 Not Reported Not Reported